Time;durP1;ratioP1;P1;durP2;ratioP2;P2;SDS_P1;SDS_P2;PMS_P1;PMS_P2;Temp;Humidity;BMP_temperature;BMP_pressure;BME280_temperature;BME280_humidity;BME280_pressure;Samples;Min_cycle;Max_cycle;Signal;HPM_P1;HPM_P2
2022/07/14 00:03:25;;;;;;;1.92;1.40;;;22.40;99.90;;;;;;13113102;22;20479;-87
2022/07/14 00:08:28;;;;;;;1.90;1.35;;;22.40;99.90;;;;;;13111757;22;20192;-87
2022/07/14 00:13:31;;;;;;;1.63;1.52;;;22.20;99.90;;;;;;13129609;22;20223;-87
2022/07/14 00:18:37;;;;;;;1.30;1.10;;;22.40;99.90;;;;;;13085693;22;20237;-87
2022/07/14 00:23:45;;;;;;;1.20;1.10;;;22.30;99.90;;;;;;13111909;22;20172;-87
2022/07/14 00:28:47;;;;;;;2.35;1.33;;;22.30;99.90;;;;;;13131597;22;20188;-87
2022/07/14 00:33:50;;;;;;;1.10;1.00;;;22.30;99.90;;;;;;13058678;22;20206;-87
2022/07/14 00:38:54;;;;;;;1.40;1.30;;;22.30;99.90;;;;;;13083876;22;20257;-87
2022/07/14 00:43:56;;;;;;;1.45;1.33;;;22.30;99.90;;;;;;13084069;22;20561;-87
2022/07/14 00:49:00;;;;;;;1.20;1.10;;;22.30;99.90;;;;;;13083510;22;20222;-87
2022/07/14 00:54:02;;;;;;;1.73;1.00;;;22.30;99.90;;;;;;13083375;22;20177;-87
2022/07/14 00:59:05;;;;;;;2.53;1.15;;;22.30;99.90;;;;;;13083355;22;20715;-87
2022/07/14 01:04:07;;;;;;;1.20;1.10;;;22.30;99.90;;;;;;13083390;22;20237;-87
2022/07/14 01:09:10;;;;;;;1.38;1.27;;;22.30;99.90;;;;;;13084219;22;20192;-87
2022/07/14 01:14:12;;;;;;;1.58;1.33;;;22.30;99.90;;;;;;13082964;22;20716;-87
2022/07/14 01:19:15;;;;;;;1.65;1.55;;;22.20;99.90;;;;;;13082567;22;20245;-87
2022/07/14 01:24:18;;;;;;;2.00;1.70;;;22.30;99.90;;;;;;13056862;22;20241;-87
2022/07/14 01:29:21;;;;;;;2.38;1.33;;;22.30;99.90;;;;;;13081651;22;20196;-87
2022/07/14 01:34:24;;;;;;;1.48;1.30;;;22.20;99.90;;;;;;13084291;22;20164;-87
2022/07/14 01:39:27;;;;;;;1.20;1.10;;;22.20;99.90;;;;;;13082424;22;20245;-87
2022/07/14 01:44:29;;;;;;;1.10;1.00;;;22.20;99.90;;;;;;13083533;22;20225;-87
2022/07/14 01:49:32;;;;;;;1.23;1.10;;;22.20;99.90;;;;;;13110913;22;20188;-87
2022/07/14 01:54:38;;;;;;;1.85;1.20;;;22.20;99.90;;;;;;13083456;22;20527;-87
2022/07/14 01:59:42;;;;;;;2.20;1.40;;;22.20;99.90;;;;;;13082974;22;20526;-88
2022/07/14 02:04:45;;;;;;;1.58;1.48;;;22.20;99.90;;;;;;13083217;22;20521;-87
2022/07/14 02:15:17;;;;;;;1.52;1.42;;;22.20;99.90;;;;;;13083243;22;20556;-87
2022/07/14 02:20:21;;;;;;;3.65;1.50;;;22.10;99.90;;;;;;13058035;22;20176;-87
2022/07/14 02:25:23;;;;;;;1.20;1.10;;;22.20;99.90;;;;;;13085270;22;20176;-87
2022/07/14 02:30:26;;;;;;;1.50;1.40;;;22.10;99.90;;;;;;13084183;22;20237;-87
2022/07/14 02:35:29;;;;;;;1.40;1.30;;;22.10;99.90;;;;;;13083885;22;20176;-87
2022/07/14 02:40:32;;;;;;;1.80;1.63;;;22.10;99.90;;;;;;13058168;22;20209;-88
2022/07/14 02:45:35;;;;;;;1.52;1.40;;;22.10;99.90;;;;;;13084121;22;20180;-87
2022/07/14 02:50:37;;;;;;;1.30;1.20;;;22.10;99.90;;;;;;13083802;22;20585;-87
2022/07/14 02:55:40;;;;;;;1.85;1.25;;;22.10;99.90;;;;;;13111951;22;20168;-87
2022/07/14 03:00:42;;;;;;;1.70;1.50;;;22.10;99.90;;;;;;13082027;22;20226;-87
2022/07/14 03:05:45;;;;;;;2.17;1.92;;;22.10;99.90;;;;;;13082706;22;20517;-87
2022/07/14 03:10:51;;;;;;;1.40;1.25;;;22.10;99.90;;;;;;13059139;22;20226;-87
2022/07/14 03:15:54;;;;;;;1.50;1.40;;;22.10;99.90;;;;;;13084561;22;20173;-87
2022/07/14 03:20:57;;;;;;;1.55;1.45;;;22.10;99.90;;;;;;13077995;22;20190;-87
2022/07/14 03:26:01;;;;;;;3.15;1.48;;;22.10;99.90;;;;;;13119447;22;20224;-87
2022/07/14 03:31:04;;;;;;;1.83;1.65;;;22.10;99.90;;;;;;13172988;22;20236;-88
2022/07/14 03:36:09;;;;;;;2.13;1.88;;;22.10;99.90;;;;;;13144686;22;20248;-87
2022/07/14 03:41:12;;;;;;;1.90;1.42;;;22.10;99.90;;;;;;13144661;22;20223;-88
2022/07/14 03:46:15;;;;;;;1.67;1.58;;;22.10;99.90;;;;;;13120553;22;20224;-87
2022/07/14 03:51:26;;;;;;;1.85;1.60;;;22.20;99.90;;;;;;13148700;22;20551;-87
2022/07/14 03:56:31;;;;;;;3.97;2.60;;;22.20;99.90;;;;;;13149095;22;20239;-88
2022/07/14 04:01:34;;;;;;;1.90;1.80;;;22.20;99.90;;;;;;13148138;22;20220;-88
2022/07/14 04:06:38;;;;;;;2.63;1.92;;;22.00;99.90;;;;;;13149007;22;20208;-88
2022/07/14 04:11:41;;;;;;;1.88;1.73;;;22.10;99.90;;;;;;13122795;22;20239;-88
2022/07/14 04:16:45;;;;;;;1.70;1.42;;;22.20;99.90;;;;;;13122636;22;20255;-88
2022/07/14 04:21:50;;;;;;;2.13;1.88;;;22.20;99.90;;;;;;13147637;22;20311;-88
2022/07/14 04:27:14;;;;;;;1.75;1.65;;;22.20;99.90;;;;;;13127630;22;20282;-88
2022/07/14 04:32:17;;;;;;;5.43;2.33;;;22.00;99.90;;;;;;13122244;22;20228;-88
2022/07/14 04:37:19;;;;;;;2.90;1.70;;;22.00;99.90;;;;;;13147545;22;20247;-88
2022/07/14 04:42:23;;;;;;;2.67;2.03;;;21.30;99.90;;;;;;13147761;22;20244;-89
2022/07/14 04:47:26;;;;;;;1.58;1.42;;;21.90;99.90;;;;;;13121081;22;20269;-88
2022/07/14 04:52:28;;;;;;;1.98;1.70;;;21.70;99.90;;;;;;13147875;22;20224;-88
2022/07/14 04:57:40;;;;;;;2.28;1.80;;;21.50;99.90;;;;;;13148460;22;20232;-89
2022/07/14 05:02:47;;;;;;;2.40;1.98;;;21.60;99.90;;;;;;13148494;22;20232;-89
2022/07/14 05:07:50;;;;;;;2.13;1.70;;;21.50;99.90;;;;;;13148477;22;20247;-89
2022/07/14 05:12:59;;;;;;;4.50;1.45;;;22.10;99.90;;;;;;13149143;22;20236;-89
2022/07/14 05:18:02;;;;;;;2.03;1.75;;;22.10;99.90;;;;;;13123294;22;20247;-89
2022/07/14 05:23:05;;;;;;;1.48;1.38;;;21.90;99.90;;;;;;13148182;22;20243;-89
2022/07/14 05:28:08;;;;;;;3.20;1.70;;;22.10;99.90;;;;;;13148568;22;20270;-89
2022/07/14 05:33:25;;;;;;;3.00;2.53;;;22.10;99.90;;;;;;13125882;22;20211;-88
2022/07/14 05:38:31;;;;;;;2.05;1.85;;;21.80;99.90;;;;;;13147603;22;20248;-89
2022/07/14 05:43:42;;;;;;;2.22;1.73;;;21.80;99.90;;;;;;13124495;22;20216;-88
2022/07/14 05:48:46;;;;;;;1.83;1.45;;;21.90;99.90;;;;;;13122825;22;20287;-88
2022/07/14 05:53:50;;;;;;;5.65;2.25;;;21.80;99.90;;;;;;13174704;22;20271;-88
2022/07/14 05:58:55;;;;;;;3.30;1.83;;;22.00;99.90;;;;;;13150739;22;20164;-88
2022/07/14 06:03:58;;;;;;;2.50;1.90;;;21.80;99.90;;;;;;13076366;22;20245;-88
2022/07/14 06:09:03;;;;;;;2.15;1.92;;;22.30;99.90;;;;;;13098808;22;20662;-87
2022/07/14 06:14:07;;;;;;;5.10;2.42;;;22.20;99.90;;;;;;13075394;22;20229;-88
2022/07/14 06:19:11;;;;;;;1.95;1.60;;;22.30;99.90;;;;;;13095804;22;20176;-88
2022/07/14 06:24:18;;;;;;;2.22;1.90;;;22.40;99.90;;;;;;13077826;22;20172;-88
2022/07/14 06:29:21;;;;;;;2.05;1.83;;;22.40;99.90;;;;;;13080039;22;20207;-88
2022/07/14 06:34:24;;;;;;;2.00;1.80;;;22.50;99.90;;;;;;13092067;22;20238;-88
2022/07/14 06:39:40;;;;;;;1.52;1.38;;;22.50;99.90;;;;;;13064666;22;20206;-88
2022/07/14 06:44:42;;;;;;;1.38;1.27;;;22.40;99.90;;;;;;13087948;22;20202;-88
2022/07/14 06:49:45;;;;;;;5.80;2.00;;;22.60;99.90;;;;;;13088410;22;20574;-87
2022/07/14 06:54:50;;;;;;;3.45;1.83;;;22.50;99.90;;;;;;13086810;22;20226;-88
2022/07/14 06:59:54;;;;;;;1.65;1.55;;;22.30;99.90;;;;;;13116079;22;20483;-88
2022/07/14 07:10:18;;;;;;;1.88;1.60;;;22.60;99.90;;;;;;13078859;22;20245;-87
2022/07/14 07:15:22;;;;;;;2.38;1.88;;;22.80;99.90;;;;;;13080604;22;20165;-88
2022/07/14 07:20:25;;;;;;;2.33;1.65;;;22.60;99.90;;;;;;13052523;22;20176;-89
2022/07/14 07:25:27;;;;;;;1.98;1.77;;;22.80;99.90;;;;;;13116007;22;20215;-88
2022/07/14 07:30:31;;;;;;;3.03;2.03;;;22.60;99.90;;;;;;13093073;22;20187;-88
2022/07/14 07:35:34;;;;;;;2.63;1.90;;;22.90;99.90;;;;;;13134058;22;20165;-88
2022/07/14 07:40:41;;;;;;;2.22;1.55;;;22.90;99.90;;;;;;13088166;22;20199;-89
2022/07/14 07:45:44;;;;;;;2.55;1.70;;;22.60;99.90;;;;;;13059189;22;20180;-89
2022/07/14 07:50:48;;;;;;;2.22;1.98;;;22.60;99.90;;;;;;13083293;22;20583;-88
2022/07/14 07:55:54;;;;;;;1.85;1.73;;;22.70;99.90;;;;;;13080750;22;20203;-89
2022/07/14 08:00:56;;;;;;;4.05;1.83;;;22.90;99.90;;;;;;13055002;22;20177;-88
2022/07/14 08:05:59;;;;;;;4.00;2.03;;;23.00;99.90;;;;;;13081326;22;20180;-88
2022/07/14 08:11:22;;;;;;;3.92;2.10;;;22.40;99.90;;;;;;13058557;22;20200;-89
2022/07/14 08:16:24;;;;;;;1.73;1.60;;;22.50;99.90;;;;;;13082533;22;20230;-88
2022/07/14 08:21:28;;;;;;;4.35;2.50;;;22.70;99.90;;;;;;13082302;22;20176;-89
2022/07/14 08:26:31;;;;;;;4.00;1.90;;;22.60;99.90;;;;;;13079522;22;20185;-89
2022/07/14 08:31:33;;;;;;;2.00;1.50;;;22.00;99.90;;;;;;13079372;22;20200;-88
2022/07/14 08:36:43;;;;;;;2.17;1.75;;;22.70;99.90;;;;;;13055736;22;20171;-89
2022/07/14 08:41:47;;;;;;;2.00;1.80;;;23.00;99.90;;;;;;13080711;22;20483;-89
2022/07/14 08:46:50;;;;;;;2.17;1.67;;;23.00;99.90;;;;;;13107079;22;20172;-88
2022/07/14 08:51:54;;;;;;;2.65;1.77;;;23.10;99.90;;;;;;13106797;22;20257;-89
2022/07/14 08:56:57;;;;;;;2.35;2.10;;;23.00;99.90;;;;;;13078269;22;20214;-88
2022/07/14 09:01:59;;;;;;;6.13;1.98;;;22.90;99.90;;;;;;13104499;22;20245;-88
2022/07/14 09:07:02;;;;;;;2.75;2.05;;;22.90;99.90;;;;;;13107344;22;20164;-88
2022/07/14 09:12:07;;;;;;;7.55;1.95;;;23.00;99.90;;;;;;13052856;22;20744;-88
2022/07/14 09:17:14;;;;;;;1.98;1.48;;;22.40;97.00;;;;;;13079292;22;20365;-88
2022/07/14 09:22:28;;;;;;;4.95;1.55;;;22.80;99.60;;;;;;13080063;22;20194;-88
2022/07/14 09:27:32;;;;;;;2.47;1.80;;;22.80;99.90;;;;;;13078328;22;20265;-88
2022/07/14 09:32:44;;;;;;;4.63;1.70;;;22.70;99.90;;;;;;13106756;22;20188;-88
2022/07/14 09:37:51;;;;;;;2.88;1.33;;;22.60;99.90;;;;;;13098449;22;20160;-89
2022/07/14 09:42:59;;;;;;;4.75;1.95;;;22.60;99.90;;;;;;13077710;22;20523;-88
2022/07/14 09:48:13;;;;;;;2.22;1.75;;;22.70;99.90;;;;;;13108593;22;20237;-89
2022/07/14 09:53:20;;;;;;;3.22;1.90;;;22.70;99.90;;;;;;13079581;22;20515;-85
2022/07/14 09:58:27;;;;;;;4.00;1.65;;;22.90;99.90;;;;;;13098535;22;20221;-88
2022/07/14 10:03:41;;;;;;;3.05;1.92;;;22.80;99.90;;;;;;13125015;22;20201;-87
2022/07/14 10:08:50;;;;;;;9.93;1.70;;;22.60;97.60;;;;;;13078949;22;20192;-87
2022/07/14 10:13:52;;;;;;;2.60;1.58;;;22.60;92.30;;;;;;13053826;22;20172;-87
2022/07/14 10:18:55;;;;;;;4.13;1.80;;;22.80;99.90;;;;;;13106955;22;20214;-88
2022/07/14 10:23:58;;;;;;;2.67;1.30;;;22.90;94.10;;;;;;13081042;22;20229;-88
2022/07/14 10:29:04;;;;;;;3.13;1.23;;;22.90;99.00;;;;;;13098175;22;20197;-88
2022/07/14 10:34:37;;;;;;;4.18;1.38;;;22.80;90.90;;;;;;13078534;22;20568;-87
2022/07/14 10:40:19;;;;;;;2.05;1.85;;;22.90;96.10;;;;;;13124019;22;20222;-88
2022/07/14 10:45:26;;;;;;;4.22;1.85;;;23.00;99.60;;;;;;13111505;22;20164;-89
2022/07/14 10:50:30;;;;;;;2.35;1.33;;;22.90;99.00;;;;;;13104100;22;20184;-88
2022/07/14 10:55:35;;;;;;;2.85;1.80;;;22.90;99.50;;;;;;13110436;22;20164;-89
2022/07/14 11:00:43;;;;;;;3.47;1.45;;;22.90;99.40;;;;;;13053491;22;20176;-89
2022/07/14 11:06:11;;;;;;;2.88;2.40;;;23.00;99.20;;;;;;13078706;22;20233;-90
2022/07/14 11:11:24;;;;;;;2.10;1.90;;;23.00;91.20;;;;;;13078987;22;20204;-89
2022/07/14 11:16:45;;;;;;;3.70;2.10;;;23.00;97.80;;;;;;13053894;22;20176;-89
2022/07/14 11:22:18;;;;;;;2.45;1.83;;;23.10;97.90;;;;;;13125886;22;20164;-89
2022/07/14 11:27:32;;;;;;;4.78;1.63;;;23.10;94.00;;;;;;13104153;22;20218;-89
2022/07/14 11:32:36;;;;;;;6.40;2.80;;;23.10;89.20;;;;;;13123848;22;20233;-88
2022/07/14 11:38:36;;;;;;;2.65;1.80;;;23.10;92.30;;;;;;13080128;22;20211;-88
2022/07/14 11:43:42;;;;;;;1.23;1.17;;;23.10;91.50;;;;;;12795732;23;20175;-88
2022/07/14 11:48:51;;;;;;;4.68;1.52;;;23.20;97.00;;;;;;12848787;23;20222;-88
2022/07/14 11:53:56;;;;;;;5.00;1.77;;;23.10;93.70;;;;;;12856223;23;21007;-88
2022/07/14 11:59:03;;;;;;;1.67;1.38;;;23.20;96.20;;;;;;12817141;23;20183;-87
2022/07/14 12:04:12;;;;;;;1.35;1.25;;;23.10;91.10;;;;;;12857165;23;20175;-87
2022/07/14 12:09:30;;;;;;;9.50;1.65;;;23.10;94.50;;;;;;12845727;23;20616;-88
2022/07/14 12:14:48;;;;;;;4.28;1.50;;;23.10;90.20;;;;;;13061192;22;20172;-87
2022/07/14 12:19:50;;;;;;;2.60;1.48;;;23.20;94.30;;;;;;13098603;22;20168;-88
2022/07/14 12:24:53;;;;;;;1.60;1.50;;;23.20;92.80;;;;;;13108595;22;20198;-87
2022/07/14 12:29:56;;;;;;;1.30;1.17;;;23.20;95.30;;;;;;13082238;22;20242;-87
2022/07/14 12:34:58;;;;;;;4.97;1.40;;;23.20;95.10;;;;;;13083197;22;20619;-87
2022/07/14 12:40:01;;;;;;;1.90;0.85;;;23.20;94.20;;;;;;13110107;22;20169;-88
2022/07/14 12:45:07;;;;;;;3.20;1.67;;;23.20;93.50;;;;;;13081724;22;20528;-88
2022/07/14 12:50:21;;;;;;;4.38;1.40;;;23.30;79.80;;;;;;13080781;22;20751;-87
2022/07/14 12:55:36;;;;;;;1.50;1.27;;;23.40;90.00;;;;;;13121528;22;20499;-87
2022/07/14 13:00:41;;;;;;;4.70;1.20;;;23.40;90.30;;;;;;13108951;22;20214;-88
2022/07/14 13:05:54;;;;;;;2.50;1.00;;;23.30;92.10;;;;;;13082111;22;20506;-88
2022/07/14 13:10:59;;;;;;;3.58;1.17;;;23.30;91.50;;;;;;13080509;22;20897;-87
2022/07/14 13:16:16;;;;;;;2.53;0.77;;;23.30;67.80;;;;;;13079915;22;20257;-88
2022/07/14 13:21:19;;;;;;;2.80;0.80;;;23.40;68.00;;;;;;13128389;22;20544;-87
2022/07/14 13:26:22;;;;;;;6.82;0.90;;;23.50;67.80;;;;;;13110209;22;20172;-88
2022/07/14 13:31:25;;;;;;;6.30;1.05;;;23.50;67.10;;;;;;13080888;22;20200;-87
2022/07/14 13:36:28;;;;;;;5.40;0.90;;;23.60;67.20;;;;;;13056904;22;20491;-87
2022/07/14 13:41:31;;;;;;;4.85;0.93;;;23.70;61.60;;;;;;13088784;22;20533;-87
2022/07/14 13:46:35;;;;;;;2.08;0.70;;;23.80;62.00;;;;;;13081266;22;20226;-87
2022/07/14 13:56:59;;;;;;;3.08;0.70;;;23.70;62.60;;;;;;13113190;22;20168;-87
2022/07/14 14:02:02;;;;;;;1.00;0.55;;;23.70;64.00;;;;;;13053665;22;20185;-87
2022/07/14 14:07:05;;;;;;;1.48;0.55;;;23.60;64.60;;;;;;13080441;22;20180;-87
2022/07/14 14:12:07;;;;;;;3.55;0.45;;;23.70;63.90;;;;;;13015578;22;20282;-87
2022/07/14 14:17:10;;;;;;;0.70;0.50;;;23.60;65.20;;;;;;13041760;22;20173;-87
2022/07/14 14:22:17;;;;;;;2.72;0.50;;;23.80;64.70;;;;;;13040073;22;20185;-87
2022/07/14 14:27:19;;;;;;;2.08;0.70;;;23.70;61.50;;;;;;13040537;22;20185;-87
2022/07/14 14:32:22;;;;;;;2.40;0.93;;;23.70;67.60;;;;;;13042348;22;20524;-87
2022/07/14 14:37:24;;;;;;;2.95;0.63;;;23.70;67.70;;;;;;13037395;22;20191;-87
2022/07/14 14:42:27;;;;;;;2.47;0.73;;;23.70;66.00;;;;;;13041293;22;20230;-87
2022/07/14 14:47:30;;;;;;;7.03;0.70;;;23.80;59.40;;;;;;13043048;22;20590;-86
2022/07/14 14:52:33;;;;;;;1.05;0.60;;;23.80;65.40;;;;;;13045089;22;20189;-87
2022/07/14 14:57:36;;;;;;;2.05;0.85;;;23.80;62.00;;;;;;13045272;22;20191;-87
2022/07/14 15:02:39;;;;;;;1.00;0.50;;;23.90;58.30;;;;;;13042535;22;20177;-86
2022/07/14 15:07:42;;;;;;;2.35;0.50;;;24.00;68.50;;;;;;13041990;22;20382;-85
2022/07/14 15:12:44;;;;;;;2.85;0.60;;;23.90;62.20;;;;;;13045360;22;20196;-85
2022/07/14 15:17:47;;;;;;;4.10;0.68;;;24.00;70.80;;;;;;13048236;22;20262;-78
2022/07/14 15:22:50;;;;;;;3.92;0.60;;;23.70;55.30;;;;;;13043277;22;20161;-79
2022/07/14 15:27:53;;;;;;;3.25;0.57;;;23.90;55.80;;;;;;13043788;22;20169;-79
2022/07/14 15:32:56;;;;;;;4.50;1.30;;;23.80;55.40;;;;;;13061747;22;20250;-79
2022/07/14 15:37:58;;;;;;;6.22;1.05;;;23.90;55.50;;;;;;13043993;22;20165;-79
2022/07/14 15:43:01;;;;;;;9.77;0.77;;;23.90;56.90;;;;;;13017630;22;20588;-79
2022/07/14 15:48:04;;;;;;;1.60;0.32;;;23.80;56.90;;;;;;13046940;22;20223;-79
2022/07/14 15:53:06;;;;;;;2.13;0.88;;;23.80;54.80;;;;;;13066368;22;20189;-79
2022/07/14 15:58:09;;;;;;;3.08;0.65;;;23.80;58.20;;;;;;13017935;22;20177;-79
2022/07/14 16:03:20;;;;;;;2.17;0.73;;;23.70;56.60;;;;;;13066114;22;20173;-80
2022/07/14 16:08:22;;;;;;;6.15;0.70;;;23.70;59.50;;;;;;13018655;22;20177;-79
2022/07/14 16:13:25;;;;;;;2.35;0.50;;;23.70;58.10;;;;;;13018948;22;20593;-79
2022/07/14 16:18:28;;;;;;;0.70;0.30;;;23.60;60.00;;;;;;13018358;22;20593;-79
2022/07/14 16:23:31;;;;;;;1.63;0.90;;;23.40;63.10;;;;;;13019477;22;20484;-79
2022/07/14 16:28:34;;;;;;;5.43;0.68;;;23.50;63.10;;;;;;13046245;22;20169;-79
2022/07/14 16:33:36;;;;;;;3.47;0.70;;;23.70;62.30;;;;;;13045497;22;20586;-79
2022/07/14 16:38:39;;;;;;;5.60;0.98;;;23.90;58.20;;;;;;13015961;22;20177;-79
2022/07/14 16:43:42;;;;;;;0.98;0.60;;;23.60;59.70;;;;;;13061160;22;20165;-79
2022/07/14 16:48:46;;;;;;;3.40;0.52;;;23.50;64.10;;;;;;13043873;22;20169;-79
2022/07/14 16:53:49;;;;;;;3.03;0.73;;;22.90;58.10;;;;;;13043708;22;20185;-78
2022/07/14 16:58:51;;;;;;;1.33;0.20;;;23.10;59.60;;;;;;13013656;22;20176;-81
2022/07/14 17:03:54;;;;;;;1.30;0.43;;;23.20;60.40;;;;;;12988220;22;20185;-79
2022/07/14 17:08:56;;;;;;;6.43;0.70;;;23.20;61.70;;;;;;13042125;22;20169;-79
2022/07/14 17:14:04;;;;;;;1.27;0.38;;;23.10;62.40;;;;;;13059393;22;20188;-78
2022/07/14 17:19:06;;;;;;;1.00;0.47;;;22.90;61.00;;;;;;13012234;22;20687;-79
2022/07/14 17:24:09;;;;;;;1.40;0.70;;;22.90;64.40;;;;;;13010885;22;20226;-78
2022/07/14 17:29:12;;;;;;;3.75;0.60;;;22.80;65.50;;;;;;13028890;22;20191;-78
2022/07/14 17:34:15;;;;;;;3.75;1.35;;;22.80;65.80;;;;;;13038913;22;20237;-78
2022/07/14 17:39:21;;;;;;;1.40;0.40;;;22.60;63.60;;;;;;13009278;22;20258;-77
2022/07/14 17:44:23;;;;;;;6.13;1.20;;;22.40;66.90;;;;;;13010242;22;20230;-78
2022/07/14 17:49:25;;;;;;;1.05;0.30;;;22.50;68.10;;;;;;13010208;22;20169;-79
2022/07/14 17:54:28;;;;;;;1.10;0.45;;;22.60;68.60;;;;;;13011155;22;20254;-79
2022/07/14 17:59:31;;;;;;;2.00;1.13;;;22.60;69.10;;;;;;13010531;22;20164;-78
2022/07/14 18:04:33;;;;;;;3.72;0.80;;;22.10;69.10;;;;;;13037777;22;20557;-78
2022/07/14 18:09:36;;;;;;;1.40;0.55;;;22.10;70.50;;;;;;13037998;22;20165;-79
2022/07/14 18:14:39;;;;;;;0.77;0.45;;;22.20;72.30;;;;;;13038458;22;20534;-79
2022/07/14 18:19:42;;;;;;;1.27;0.55;;;22.50;72.00;;;;;;12982833;22;1274340;-79
2022/07/14 18:24:44;;;;;;;1.00;0.30;;;22.20;73.30;;;;;;13040103;22;20215;-79
2022/07/14 18:29:47;;;;;;;2.08;0.77;;;22.10;73.50;;;;;;13041513;22;20172;-78
2022/07/14 18:34:49;;;;;;;4.97;1.10;;;22.20;72.20;;;;;;13040275;22;20761;-78
2022/07/14 18:39:52;;;;;;;1.63;0.70;;;21.90;73.00;;;;;;13040092;22;20222;-78
2022/07/14 18:50:18;;;;;;;3.72;0.98;;;22.20;74.30;;;;;;13013082;22;20180;-78
2022/07/14 18:55:21;;;;;;;1.30;0.77;;;22.00;73.20;;;;;;13040238;22;20222;-79
2022/07/14 19:00:24;;;;;;;3.00;0.70;;;22.00;77.80;;;;;;13038498;22;20552;-78
2022/07/14 19:05:27;;;;;;;1.40;0.82;;;21.80;76.20;;;;;;12987825;22;20230;-78
2022/07/14 19:10:30;;;;;;;5.18;1.00;;;22.10;79.40;;;;;;13012058;22;20503;-78
2022/07/14 19:15:33;;;;;;;0.60;0.60;;;22.00;80.00;;;;;;13039990;22;20165;-78
2022/07/14 19:20:35;;;;;;;1.73;0.60;;;21.80;81.70;;;;;;13042340;22;20525;-78
2022/07/14 19:25:39;;;;;;;0.63;0.60;;;21.90;81.30;;;;;;13045532;22;20196;-81
2022/07/14 19:30:43;;;;;;;1.42;0.73;;;22.10;82.10;;;;;;13016019;22;20242;-78
2022/07/14 19:35:46;;;;;;;0.82;0.50;;;22.00;83.00;;;;;;13042971;22;20181;-79
2022/07/14 19:40:49;;;;;;;1.60;0.50;;;22.10;83.30;;;;;;13043813;22;20173;-79
2022/07/14 19:45:52;;;;;;;0.52;0.52;;;22.10;83.50;;;;;;13017978;22;20484;-78
2022/07/14 19:50:54;;;;;;;0.98;0.50;;;22.10;84.20;;;;;;13043972;22;20736;-78
2022/07/14 19:55:57;;;;;;;0.40;0.40;;;22.10;84.70;;;;;;13044056;22;20515;-78
2022/07/14 20:01:00;;;;;;;0.43;0.40;;;22.00;85.20;;;;;;13043843;22;20169;-78
2022/07/14 20:06:22;;;;;;;0.50;0.50;;;22.10;85.70;;;;;;13038253;22;20246;-78
2022/07/14 20:11:25;;;;;;;0.50;0.40;;;22.00;86.20;;;;;;13041824;22;20592;-78
2022/07/14 20:16:28;;;;;;;1.25;0.68;;;22.00;87.20;;;;;;13015206;22;20227;-78
2022/07/14 20:21:30;;;;;;;1.13;0.90;;;21.90;87.10;;;;;;13044524;22;20197;-78
2022/07/14 20:26:33;;;;;;;0.40;0.40;;;21.90;87.80;;;;;;13042340;22;20531;-78
2022/07/14 20:36:57;;;;;;;0.50;0.30;;;21.90;88.70;;;;;;13059917;22;20165;-78
2022/07/14 20:42:00;;;;;;;1.02;0.57;;;21.80;89.10;;;;;;13017185;22;20902;-78
2022/07/14 20:47:14;;;;;;;1.08;0.77;;;21.80;89.60;;;;;;13044022;22;20550;-78
2022/07/14 20:52:20;;;;;;;0.82;0.50;;;21.80;89.90;;;;;;13016995;22;20189;-79
2022/07/14 20:57:24;;;;;;;1.48;0.47;;;21.80;90.20;;;;;;13042292;22;20576;-78
2022/07/14 21:02:26;;;;;;;1.20;0.82;;;21.80;90.40;;;;;;12991675;22;20165;-81
2022/07/14 21:07:29;;;;;;;1.40;0.60;;;21.80;90.60;;;;;;13044003;22;20219;-79
2022/07/14 21:12:33;;;;;;;2.45;0.50;;;21.80;90.80;;;;;;13016884;22;20558;-78
2022/07/14 21:17:35;;;;;;;1.23;0.43;;;21.70;91.00;;;;;;13043082;22;20161;-78
2022/07/14 21:22:38;;;;;;;0.80;0.80;;;21.70;91.10;;;;;;13017655;22;20181;-78
2022/07/14 21:27:40;;;;;;;1.30;0.50;;;21.70;91.40;;;;;;13044514;22;20242;-78
2022/07/14 21:32:43;;;;;;;0.95;0.73;;;21.70;91.50;;;;;;13043314;22;20565;-79
2022/07/14 21:37:52;;;;;;;1.02;0.60;;;21.60;91.70;;;;;;13016943;22;20177;-78
2022/07/14 21:42:55;;;;;;;0.93;0.40;;;21.70;91.80;;;;;;13045602;22;20173;-79
2022/07/14 21:47:57;;;;;;;0.65;0.40;;;21.70;91.90;;;;;;13013178;22;20522;-78
2022/07/14 21:53:00;;;;;;;1.77;0.60;;;21.70;92.00;;;;;;13041426;22;20523;-79
2022/07/14 21:58:02;;;;;;;0.75;0.47;;;21.70;92.40;;;;;;13040773;22;20161;-79
2022/07/14 22:03:05;;;;;;;0.90;0.50;;;21.70;92.20;;;;;;13041060;22;20255;-79
2022/07/14 22:08:08;;;;;;;0.65;0.50;;;21.70;92.30;;;;;;13041169;22;20173;-79
2022/07/14 22:13:10;;;;;;;0.68;0.52;;;21.70;92.40;;;;;;13044588;22;20226;-78
2022/07/14 22:18:13;;;;;;;0.70;0.50;;;21.70;92.60;;;;;;13014817;22;20270;-79
2022/07/14 22:23:33;;;;;;;0.88;0.57;;;21.60;92.80;;;;;;13062190;22;20168;-79
2022/07/14 22:28:35;;;;;;;0.70;0.65;;;21.60;92.80;;;;;;13043313;22;20222;-78
2022/07/14 22:33:41;;;;;;;1.58;0.80;;;21.60;92.90;;;;;;13016433;22;20572;-78
2022/07/14 22:38:44;;;;;;;1.02;0.60;;;21.60;92.90;;;;;;13016239;22;20187;-78
2022/07/14 22:43:47;;;;;;;0.98;0.55;;;21.60;92.90;;;;;;13043784;22;20207;-79
2022/07/14 22:48:49;;;;;;;0.98;0.60;;;21.60;93.10;;;;;;13060508;22;20169;-79
2022/07/14 22:53:52;;;;;;;0.73;0.40;;;21.60;93.10;;;;;;13042055;22;20185;-79
2022/07/14 22:58:55;;;;;;;3.08;0.50;;;21.60;93.30;;;;;;13042761;22;20172;-78
2022/07/14 23:03:58;;;;;;;1.08;0.55;;;21.60;93.30;;;;;;13015869;22;20173;-78
2022/07/14 23:09:01;;;;;;;0.55;0.52;;;21.60;93.30;;;;;;13014110;22;20498;-78
2022/07/14 23:14:03;;;;;;;0.82;0.40;;;21.60;93.30;;;;;;13015743;22;20578;-79
2022/07/14 23:19:06;;;;;;;0.75;0.57;;;21.60;93.30;;;;;;12989612;22;20590;-78
2022/07/14 23:24:09;;;;;;;1.10;0.60;;;21.60;93.30;;;;;;13043584;22;20173;-78
2022/07/14 23:29:11;;;;;;;1.88;0.77;;;21.60;93.40;;;;;;13015082;22;20180;-78
2022/07/14 23:34:14;;;;;;;1.13;0.75;;;21.60;93.40;;;;;;13013355;22;20514;-78
2022/07/14 23:39:16;;;;;;;1.33;0.93;;;21.60;93.50;;;;;;13062145;22;20191;-78
2022/07/14 23:44:19;;;;;;;0.80;0.60;;;21.60;93.40;;;;;;13033965;22;20992;-79
2022/07/14 23:49:21;;;;;;;1.00;0.70;;;21.60;93.40;;;;;;13042854;22;20222;-78
2022/07/14 23:54:24;;;;;;;0.95;0.60;;;21.70;93.40;;;;;;13043146;22;20215;-79
2022/07/14 23:59:28;;;;;;;1.58;0.85;;;21.70;93.40;;;;;;13033466;22;20165;-78
